sensor_id;sensor_type;location;lat;lon;timestamp;temperature;humidity
37938;DHT22;23763;48.130;11.602;2023-06-04T00:00:47;16.40;93.40
37938;DHT22;23763;48.130;11.602;2023-06-04T00:03:13;16.30;93.40
37938;DHT22;23763;48.130;11.602;2023-06-04T00:05:39;16.30;93.30
37938;DHT22;23763;48.130;11.602;2023-06-04T00:08:04;16.30;93.00
37938;DHT22;23763;48.130;11.602;2023-06-04T00:10:30;16.20;92.80
37938;DHT22;23763;48.130;11.602;2023-06-04T00:12:56;16.20;92.90
37938;DHT22;23763;48.130;11.602;2023-06-04T00:15:22;16.10;93.00
37938;DHT22;23763;48.130;11.602;2023-06-04T00:17:48;16.10;93.00
37938;DHT22;23763;48.130;11.602;2023-06-04T00:20:14;16.00;92.90
37938;DHT22;23763;48.130;11.602;2023-06-04T00:22:39;15.90;92.70
37938;DHT22;23763;48.130;11.602;2023-06-04T00:25:10;16.10;92.90
37938;DHT22;23763;48.130;11.602;2023-06-04T00:27:36;15.90;92.90
37938;DHT22;23763;48.130;11.602;2023-06-04T00:30:03;15.80;92.90
37938;DHT22;23763;48.130;11.602;2023-06-04T00:32:28;15.80;92.80
37938;DHT22;23763;48.130;11.602;2023-06-04T00:34:55;15.80;92.70
37938;DHT22;23763;48.130;11.602;2023-06-04T00:37:27;15.70;92.80
37938;DHT22;23763;48.130;11.602;2023-06-04T00:39:53;15.70;92.80
37938;DHT22;23763;48.130;11.602;2023-06-04T00:42:19;15.60;92.90
37938;DHT22;23763;48.130;11.602;2023-06-04T00:44:45;15.60;92.90
37938;DHT22;23763;48.130;11.602;2023-06-04T00:47:20;15.50;92.90
37938;DHT22;23763;48.130;11.602;2023-06-04T00:49:46;15.50;93.00
37938;DHT22;23763;48.130;11.602;2023-06-04T00:52:15;15.60;93.00
37938;DHT22;23763;48.130;11.602;2023-06-04T00:54:41;15.70;92.90
37938;DHT22;23763;48.130;11.602;2023-06-04T00:57:07;15.70;92.70
37938;DHT22;23763;48.130;11.602;2023-06-04T00:59:36;15.60;92.70
37938;DHT22;23763;48.130;11.602;2023-06-04T01:02:09;15.60;92.60
37938;DHT22;23763;48.130;11.602;2023-06-04T01:04:44;15.60;92.70
37938;DHT22;23763;48.130;11.602;2023-06-04T01:07:14;15.60;92.60
37938;DHT22;23763;48.130;11.602;2023-06-04T01:09:41;15.50;92.60
37938;DHT22;23763;48.130;11.602;2023-06-04T01:12:07;15.40;92.60
37938;DHT22;23763;48.130;11.602;2023-06-04T01:14:33;15.40;92.50
37938;DHT22;23763;48.130;11.602;2023-06-04T01:17:26;15.30;92.40
37938;DHT22;23763;48.130;11.602;2023-06-04T01:25:24;15.20;92.30
37938;DHT22;23763;48.130;11.602;2023-06-04T01:27:54;15.10;92.50
37938;DHT22;23763;48.130;11.602;2023-06-04T01:30:28;15.10;92.60
37938;DHT22;23763;48.130;11.602;2023-06-04T01:32:55;15.10;92.70
37938;DHT22;23763;48.130;11.602;2023-06-04T01:35:22;15.10;92.50
37938;DHT22;23763;48.130;11.602;2023-06-04T01:37:48;15.10;92.50
37938;DHT22;23763;48.130;11.602;2023-06-04T01:40:14;15.20;92.70
37938;DHT22;23763;48.130;11.602;2023-06-04T01:42:41;15.00;92.80
37938;DHT22;23763;48.130;11.602;2023-06-04T01:45:08;15.10;92.80
37938;DHT22;23763;48.130;11.602;2023-06-04T01:47:33;15.00;92.80
37938;DHT22;23763;48.130;11.602;2023-06-04T01:50:04;15.10;92.90
37938;DHT22;23763;48.130;11.602;2023-06-04T01:52:30;15.00;92.90
37938;DHT22;23763;48.130;11.602;2023-06-04T01:54:56;14.90;92.80
37938;DHT22;23763;48.130;11.602;2023-06-04T01:57:22;14.90;93.00
37938;DHT22;23763;48.130;11.602;2023-06-04T01:59:48;15.00;93.00
37938;DHT22;23763;48.130;11.602;2023-06-04T02:02:14;14.90;92.80
37938;DHT22;23763;48.130;11.602;2023-06-04T02:04:41;14.90;92.90
37938;DHT22;23763;48.130;11.602;2023-06-04T02:07:10;14.80;92.90
37938;DHT22;23763;48.130;11.602;2023-06-04T02:09:36;14.80;93.10
37938;DHT22;23763;48.130;11.602;2023-06-04T02:12:03;14.80;93.10
37938;DHT22;23763;48.130;11.602;2023-06-04T02:14:28;14.90;93.10
37938;DHT22;23763;48.130;11.602;2023-06-04T02:16:54;15.00;93.00
37938;DHT22;23763;48.130;11.602;2023-06-04T02:19:23;14.90;93.00
37938;DHT22;23763;48.130;11.602;2023-06-04T02:21:49;14.80;92.90
37938;DHT22;23763;48.130;11.602;2023-06-04T02:24:14;14.80;92.80
37938;DHT22;23763;48.130;11.602;2023-06-04T02:26:41;14.90;92.90
37938;DHT22;23763;48.130;11.602;2023-06-04T02:29:07;14.80;92.80
37938;DHT22;23763;48.130;11.602;2023-06-04T02:31:32;14.70;92.90
37938;DHT22;23763;48.130;11.602;2023-06-04T02:33:58;14.70;93.20
37938;DHT22;23763;48.130;11.602;2023-06-04T02:36:23;14.70;92.90
37938;DHT22;23763;48.130;11.602;2023-06-04T02:38:49;14.70;92.70
37938;DHT22;23763;48.130;11.602;2023-06-04T02:41:14;14.70;92.70
37938;DHT22;23763;48.130;11.602;2023-06-04T02:43:40;14.70;92.70
37938;DHT22;23763;48.130;11.602;2023-06-04T02:46:06;14.60;92.70
37938;DHT22;23763;48.130;11.602;2023-06-04T02:48:31;14.70;92.80
37938;DHT22;23763;48.130;11.602;2023-06-04T02:50:57;14.60;92.90
37938;DHT22;23763;48.130;11.602;2023-06-04T02:53:23;14.70;92.90
37938;DHT22;23763;48.130;11.602;2023-06-04T02:55:49;14.60;92.90
37938;DHT22;23763;48.130;11.602;2023-06-04T02:58:16;14.70;93.00
37938;DHT22;23763;48.130;11.602;2023-06-04T03:00:42;14.70;92.90
37938;DHT22;23763;48.130;11.602;2023-06-04T03:03:07;14.60;92.90
37938;DHT22;23763;48.130;11.602;2023-06-04T03:05:33;14.60;92.80
37938;DHT22;23763;48.130;11.602;2023-06-04T03:08:01;14.60;92.80
37938;DHT22;23763;48.130;11.602;2023-06-04T03:10:27;14.60;92.80
37938;DHT22;23763;48.130;11.602;2023-06-04T03:12:53;14.60;92.80
37938;DHT22;23763;48.130;11.602;2023-06-04T03:15:18;14.70;92.80
37938;DHT22;23763;48.130;11.602;2023-06-04T03:17:44;14.50;92.80
37938;DHT22;23763;48.130;11.602;2023-06-04T03:20:10;14.50;92.80
37938;DHT22;23763;48.130;11.602;2023-06-04T03:22:36;14.50;92.70
37938;DHT22;23763;48.130;11.602;2023-06-04T03:25:02;14.50;92.70
37938;DHT22;23763;48.130;11.602;2023-06-04T03:27:29;14.50;92.80
37938;DHT22;23763;48.130;11.602;2023-06-04T03:29:55;14.40;92.90
37938;DHT22;23763;48.130;11.602;2023-06-04T03:32:21;14.50;92.90
37938;DHT22;23763;48.130;11.602;2023-06-04T03:34:47;14.50;92.90
37938;DHT22;23763;48.130;11.602;2023-06-04T03:37:12;14.50;93.00
37938;DHT22;23763;48.130;11.602;2023-06-04T03:39:38;14.50;92.90
37938;DHT22;23763;48.130;11.602;2023-06-04T03:42:04;14.50;92.90
37938;DHT22;23763;48.130;11.602;2023-06-04T03:44:30;14.50;93.00
37938;DHT22;23763;48.130;11.602;2023-06-04T03:46:56;14.50;92.90
37938;DHT22;23763;48.130;11.602;2023-06-04T03:49:21;14.50;92.90
37938;DHT22;23763;48.130;11.602;2023-06-04T03:51:47;14.50;93.00
37938;DHT22;23763;48.130;11.602;2023-06-04T03:54:14;14.50;93.20
37938;DHT22;23763;48.130;11.602;2023-06-04T03:56:45;14.50;93.40
37938;DHT22;23763;48.130;11.602;2023-06-04T03:59:11;14.50;93.40
37938;DHT22;23763;48.130;11.602;2023-06-04T04:01:37;14.50;93.50
37938;DHT22;23763;48.130;11.602;2023-06-04T04:04:03;14.50;93.50
37938;DHT22;23763;48.130;11.602;2023-06-04T04:06:29;14.50;93.60
37938;DHT22;23763;48.130;11.602;2023-06-04T04:08:54;14.60;93.60
37938;DHT22;23763;48.130;11.602;2023-06-04T04:11:20;14.70;93.70
37938;DHT22;23763;48.130;11.602;2023-06-04T04:13:47;14.70;93.80
37938;DHT22;23763;48.130;11.602;2023-06-04T04:16:13;14.70;93.90
37938;DHT22;23763;48.130;11.602;2023-06-04T04:18:42;14.70;94.10
37938;DHT22;23763;48.130;11.602;2023-06-04T04:21:11;14.70;94.10
37938;DHT22;23763;48.130;11.602;2023-06-04T04:23:38;14.80;94.30
37938;DHT22;23763;48.130;11.602;2023-06-04T04:26:06;14.70;94.20
37938;DHT22;23763;48.130;11.602;2023-06-04T04:28:32;14.70;94.40
37938;DHT22;23763;48.130;11.602;2023-06-04T04:30:58;14.70;94.50
37938;DHT22;23763;48.130;11.602;2023-06-04T04:33:25;14.80;94.40
37938;DHT22;23763;48.130;11.602;2023-06-04T04:35:51;14.70;94.30
37938;DHT22;23763;48.130;11.602;2023-06-04T04:38:19;14.70;94.30
37938;DHT22;23763;48.130;11.602;2023-06-04T04:40:44;14.80;94.20
37938;DHT22;23763;48.130;11.602;2023-06-04T04:43:13;14.90;94.00
37938;DHT22;23763;48.130;11.602;2023-06-04T04:45:38;14.90;93.60
37938;DHT22;23763;48.130;11.602;2023-06-04T04:48:04;14.90;93.90
37938;DHT22;23763;48.130;11.602;2023-06-04T04:50:30;14.80;93.90
37938;DHT22;23763;48.130;11.602;2023-06-04T04:52:57;14.80;93.70
37938;DHT22;23763;48.130;11.602;2023-06-04T04:55:23;14.90;93.80
37938;DHT22;23763;48.130;11.602;2023-06-04T04:57:48;14.90;93.60
37938;DHT22;23763;48.130;11.602;2023-06-04T05:00:14;14.90;93.50
37938;DHT22;23763;48.130;11.602;2023-06-04T05:02:41;14.90;93.80
37938;DHT22;23763;48.130;11.602;2023-06-04T05:05:06;15.00;93.70
37938;DHT22;23763;48.130;11.602;2023-06-04T05:07:32;15.10;93.80
37938;DHT22;23763;48.130;11.602;2023-06-04T05:09:58;15.30;93.30
37938;DHT22;23763;48.130;11.602;2023-06-04T05:12:25;15.30;92.90
37938;DHT22;23763;48.130;11.602;2023-06-04T05:14:52;15.40;92.90
37938;DHT22;23763;48.130;11.602;2023-06-04T05:17:17;15.50;92.80
37938;DHT22;23763;48.130;11.602;2023-06-04T05:19:47;15.60;92.60
37938;DHT22;23763;48.130;11.602;2023-06-04T05:22:12;15.70;92.40
37938;DHT22;23763;48.130;11.602;2023-06-04T05:24:41;15.80;92.20
37938;DHT22;23763;48.130;11.602;2023-06-04T05:27:06;15.80;92.20
37938;DHT22;23763;48.130;11.602;2023-06-04T05:29:34;15.80;92.10
37938;DHT22;23763;48.130;11.602;2023-06-04T05:32:00;15.90;91.80
37938;DHT22;23763;48.130;11.602;2023-06-04T05:34:26;15.90;91.40
37938;DHT22;23763;48.130;11.602;2023-06-04T05:36:52;15.90;91.00
37938;DHT22;23763;48.130;11.602;2023-06-04T05:39:18;16.20;90.90
37938;DHT22;23763;48.130;11.602;2023-06-04T05:41:44;16.20;90.30
37938;DHT22;23763;48.130;11.602;2023-06-04T05:44:10;16.30;90.60
37938;DHT22;23763;48.130;11.602;2023-06-04T05:46:36;16.20;90.30
37938;DHT22;23763;48.130;11.602;2023-06-04T05:49:02;16.30;90.50
37938;DHT22;23763;48.130;11.602;2023-06-04T05:51:27;16.60;90.30
37938;DHT22;23763;48.130;11.602;2023-06-04T05:53:54;16.60;89.30
37938;DHT22;23763;48.130;11.602;2023-06-04T05:56:20;16.70;89.70
37938;DHT22;23763;48.130;11.602;2023-06-04T05:58:51;16.90;88.70
37938;DHT22;23763;48.130;11.602;2023-06-04T06:01:17;16.90;88.30
37938;DHT22;23763;48.130;11.602;2023-06-04T06:03:43;17.10;88.80
37938;DHT22;23763;48.130;11.602;2023-06-04T06:06:09;17.20;88.70
37938;DHT22;23763;48.130;11.602;2023-06-04T06:08:38;17.30;88.60
37938;DHT22;23763;48.130;11.602;2023-06-04T06:11:04;20.30;83.10
37938;DHT22;23763;48.130;11.602;2023-06-04T06:13:30;24.40;72.90
37938;DHT22;23763;48.130;11.602;2023-06-04T06:15:56;25.60;66.70
37938;DHT22;23763;48.130;11.602;2023-06-04T06:18:22;25.60;65.60
37938;DHT22;23763;48.130;11.602;2023-06-04T06:20:48;27.40;63.50
37938;DHT22;23763;48.130;11.602;2023-06-04T06:23:13;30.20;58.70
37938;DHT22;23763;48.130;11.602;2023-06-04T06:25:40;31.20;56.30
37938;DHT22;23763;48.130;11.602;2023-06-04T06:28:06;33.00;53.80
37938;DHT22;23763;48.130;11.602;2023-06-04T06:30:32;33.70;52.30
37938;DHT22;23763;48.130;11.602;2023-06-04T06:32:58;35.10;50.50
37938;DHT22;23763;48.130;11.602;2023-06-04T06:35:23;34.80;49.80
37938;DHT22;23763;48.130;11.602;2023-06-04T06:37:51;35.40;48.70
37938;DHT22;23763;48.130;11.602;2023-06-04T06:40:17;32.60;50.60
37938;DHT22;23763;48.130;11.602;2023-06-04T06:42:47;33.00;50.80
37938;DHT22;23763;48.130;11.602;2023-06-04T06:45:13;33.90;50.00
37938;DHT22;23763;48.130;11.602;2023-06-04T06:47:38;33.90;50.00
37938;DHT22;23763;48.130;11.602;2023-06-04T06:50:04;34.80;49.00
37938;DHT22;23763;48.130;11.602;2023-06-04T06:52:30;34.80;49.10
37938;DHT22;23763;48.130;11.602;2023-06-04T06:54:56;35.60;48.00
37938;DHT22;23763;48.130;11.602;2023-06-04T06:57:21;36.40;47.00
37938;DHT22;23763;48.130;11.602;2023-06-04T06:59:47;36.30;46.60
37938;DHT22;23763;48.130;11.602;2023-06-04T07:02:13;35.80;46.30
37938;DHT22;23763;48.130;11.602;2023-06-04T07:04:39;36.20;46.50
37938;DHT22;23763;48.130;11.602;2023-06-04T07:07:04;34.20;47.60
37938;DHT22;23763;48.130;11.602;2023-06-04T07:09:30;34.80;47.40
37938;DHT22;23763;48.130;11.602;2023-06-04T07:11:56;34.70;47.80
37938;DHT22;23763;48.130;11.602;2023-06-04T07:14:22;34.70;48.50
37938;DHT22;23763;48.130;11.602;2023-06-04T07:16:47;35.70;47.20
37938;DHT22;23763;48.130;11.602;2023-06-04T07:19:13;34.80;46.90
37938;DHT22;23763;48.130;11.602;2023-06-04T07:21:38;35.50;47.10
37938;DHT22;23763;48.130;11.602;2023-06-04T07:24:04;35.90;46.90
37938;DHT22;23763;48.130;11.602;2023-06-04T07:26:31;36.10;46.20
37938;DHT22;23763;48.130;11.602;2023-06-04T07:28:57;35.80;46.60
37938;DHT22;23763;48.130;11.602;2023-06-04T07:31:22;35.80;46.70
37938;DHT22;23763;48.130;11.602;2023-06-04T07:33:48;36.10;46.60
37938;DHT22;23763;48.130;11.602;2023-06-04T07:36:14;36.60;46.30
37938;DHT22;23763;48.130;11.602;2023-06-04T07:38:40;36.20;46.30
37938;DHT22;23763;48.130;11.602;2023-06-04T07:41:05;36.20;46.50
37938;DHT22;23763;48.130;11.602;2023-06-04T07:43:33;36.10;46.80
37938;DHT22;23763;48.130;11.602;2023-06-04T07:45:59;36.50;46.70
37938;DHT22;23763;48.130;11.602;2023-06-04T07:48:25;36.40;46.50
37938;DHT22;23763;48.130;11.602;2023-06-04T07:50:57;36.20;46.80
37938;DHT22;23763;48.130;11.602;2023-06-04T07:53:22;36.50;46.70
37938;DHT22;23763;48.130;11.602;2023-06-04T07:55:48;37.40;45.70
37938;DHT22;23763;48.130;11.602;2023-06-04T07:58:13;37.90;45.40
37938;DHT22;23763;48.130;11.602;2023-06-04T08:00:39;36.60;45.60
37938;DHT22;23763;48.130;11.602;2023-06-04T08:03:04;36.50;46.20
37938;DHT22;23763;48.130;11.602;2023-06-04T08:05:30;36.80;46.30
37938;DHT22;23763;48.130;11.602;2023-06-04T08:07:56;37.10;46.00
37938;DHT22;23763;48.130;11.602;2023-06-04T08:10:22;37.20;46.10
37938;DHT22;23763;48.130;11.602;2023-06-04T08:12:47;37.70;45.30
37938;DHT22;23763;48.130;11.602;2023-06-04T08:15:13;37.80;45.40
37938;DHT22;23763;48.130;11.602;2023-06-04T08:17:38;36.80;45.30
37938;DHT22;23763;48.130;11.602;2023-06-04T08:20:04;37.00;45.40
37938;DHT22;23763;48.130;11.602;2023-06-04T08:22:31;36.70;45.90
37938;DHT22;23763;48.130;11.602;2023-06-04T08:24:57;36.90;45.80
37938;DHT22;23763;48.130;11.602;2023-06-04T08:27:23;36.90;45.40
37938;DHT22;23763;48.130;11.602;2023-06-04T08:29:48;37.80;45.00
37938;DHT22;23763;48.130;11.602;2023-06-04T08:32:14;37.70;45.20
37938;DHT22;23763;48.130;11.602;2023-06-04T08:34:40;37.90;44.40
37938;DHT22;23763;48.130;11.602;2023-06-04T08:37:06;35.80;45.00
37938;DHT22;23763;48.130;11.602;2023-06-04T08:39:32;36.90;45.30
37938;DHT22;23763;48.130;11.602;2023-06-04T08:42:04;37.20;44.80
37938;DHT22;23763;48.130;11.602;2023-06-04T08:44:30;36.70;44.50
37938;DHT22;23763;48.130;11.602;2023-06-04T08:47:05;37.10;44.70
37938;DHT22;23763;48.130;11.602;2023-06-04T08:49:35;36.00;45.10
37938;DHT22;23763;48.130;11.602;2023-06-04T08:52:02;36.30;45.30
37938;DHT22;23763;48.130;11.602;2023-06-04T08:54:28;36.00;44.90
37938;DHT22;23763;48.130;11.602;2023-06-04T08:56:56;36.10;45.50
37938;DHT22;23763;48.130;11.602;2023-06-04T08:59:23;35.80;45.70
37938;DHT22;23763;48.130;11.602;2023-06-04T09:01:53;35.10;46.60
37938;DHT22;23763;48.130;11.602;2023-06-04T09:04:19;35.60;46.50
37938;DHT22;23763;48.130;11.602;2023-06-04T09:06:44;34.90;46.90
37938;DHT22;23763;48.130;11.602;2023-06-04T09:09:12;34.10;47.50
37938;DHT22;23763;48.130;11.602;2023-06-04T09:11:51;34.00;47.50
37938;DHT22;23763;48.130;11.602;2023-06-04T09:14:18;33.10;48.60
37938;DHT22;23763;48.130;11.602;2023-06-04T09:16:51;32.60;49.50
37938;DHT22;23763;48.130;11.602;2023-06-04T09:19:18;31.80;51.10
37938;DHT22;23763;48.130;11.602;2023-06-04T09:21:56;31.60;50.20
37938;DHT22;23763;48.130;11.602;2023-06-04T09:24:38;30.70;51.20
37938;DHT22;23763;48.130;11.602;2023-06-04T09:27:19;30.00;52.30
37938;DHT22;23763;48.130;11.602;2023-06-04T09:29:56;30.10;52.40
37938;DHT22;23763;48.130;11.602;2023-06-04T09:32:26;29.80;52.90
37938;DHT22;23763;48.130;11.602;2023-06-04T09:34:56;28.80;53.80
37938;DHT22;23763;48.130;11.602;2023-06-04T09:37:34;28.50;54.00
37938;DHT22;23763;48.130;11.602;2023-06-04T09:39:59;28.40;55.50
37938;DHT22;23763;48.130;11.602;2023-06-04T09:42:25;28.20;55.90
37938;DHT22;23763;48.130;11.602;2023-06-04T09:44:51;27.60;56.00
37938;DHT22;23763;48.130;11.602;2023-06-04T09:47:16;27.30;56.60
37938;DHT22;23763;48.130;11.602;2023-06-04T09:49:43;26.90;57.10
37938;DHT22;23763;48.130;11.602;2023-06-04T09:52:09;27.00;57.00
37938;DHT22;23763;48.130;11.602;2023-06-04T09:54:39;26.80;57.00
37938;DHT22;23763;48.130;11.602;2023-06-04T09:57:14;26.50;57.30
37938;DHT22;23763;48.130;11.602;2023-06-04T09:59:43;26.10;57.50
37938;DHT22;23763;48.130;11.602;2023-06-04T10:02:11;25.50;58.50
37938;DHT22;23763;48.130;11.602;2023-06-04T10:04:42;25.70;58.70
37938;DHT22;23763;48.130;11.602;2023-06-04T10:07:11;26.20;58.90
37938;DHT22;23763;48.130;11.602;2023-06-04T10:09:43;25.50;59.30
37938;DHT22;23763;48.130;11.602;2023-06-04T10:12:14;25.90;59.30
37938;DHT22;23763;48.130;11.602;2023-06-04T10:14:49;26.30;59.40
37938;DHT22;23763;48.130;11.602;2023-06-04T10:17:17;26.40;58.10
37938;DHT22;23763;48.130;11.602;2023-06-04T10:19:43;26.40;57.40
37938;DHT22;23763;48.130;11.602;2023-06-04T10:22:10;26.10;58.70
37938;DHT22;23763;48.130;11.602;2023-06-04T10:24:37;26.20;58.50
37938;DHT22;23763;48.130;11.602;2023-06-04T10:27:03;26.40;58.20
37938;DHT22;23763;48.130;11.602;2023-06-04T10:29:36;26.10;58.20
37938;DHT22;23763;48.130;11.602;2023-06-04T10:32:02;26.40;58.20
37938;DHT22;23763;48.130;11.602;2023-06-04T10:34:28;26.50;57.60
37938;DHT22;23763;48.130;11.602;2023-06-04T10:36:53;26.30;57.40
37938;DHT22;23763;48.130;11.602;2023-06-04T10:39:29;25.60;58.60
37938;DHT22;23763;48.130;11.602;2023-06-04T10:42:01;25.10;59.10
37938;DHT22;23763;48.130;11.602;2023-06-04T10:44:28;25.30;59.40
37938;DHT22;23763;48.130;11.602;2023-06-04T10:46:54;25.40;59.60
37938;DHT22;23763;48.130;11.602;2023-06-04T10:49:27;25.40;59.60
37938;DHT22;23763;48.130;11.602;2023-06-04T10:51:54;25.60;59.50
37938;DHT22;23763;48.130;11.602;2023-06-04T10:54:25;25.30;58.90
37938;DHT22;23763;48.130;11.602;2023-06-04T10:56:52;25.50;58.90
37938;DHT22;23763;48.130;11.602;2023-06-04T10:59:19;25.20;58.90
37938;DHT22;23763;48.130;11.602;2023-06-04T11:01:45;24.80;59.20
37938;DHT22;23763;48.130;11.602;2023-06-04T11:04:25;25.10;59.70
37938;DHT22;23763;48.130;11.602;2023-06-04T11:07:01;25.30;59.50
37938;DHT22;23763;48.130;11.602;2023-06-04T11:09:29;24.60;60.40
37938;DHT22;23763;48.130;11.602;2023-06-04T11:11:58;24.60;61.00
37938;DHT22;23763;48.130;11.602;2023-06-04T11:14:25;24.80;60.50
37938;DHT22;23763;48.130;11.602;2023-06-04T11:16:50;24.80;60.40
37938;DHT22;23763;48.130;11.602;2023-06-04T11:19:16;25.00;60.10
37938;DHT22;23763;48.130;11.602;2023-06-04T11:21:42;25.20;60.10
37938;DHT22;23763;48.130;11.602;2023-06-04T11:24:08;24.90;60.10
37938;DHT22;23763;48.130;11.602;2023-06-04T11:26:36;24.50;60.50
37938;DHT22;23763;48.130;11.602;2023-06-04T11:29:06;24.70;61.00
37938;DHT22;23763;48.130;11.602;2023-06-04T11:31:46;24.80;60.10
37938;DHT22;23763;48.130;11.602;2023-06-04T11:34:29;24.90;60.90
37938;DHT22;23763;48.130;11.602;2023-06-04T11:36:55;25.00;60.20
37938;DHT22;23763;48.130;11.602;2023-06-04T11:39:21;25.10;60.40
37938;DHT22;23763;48.130;11.602;2023-06-04T11:41:50;25.10;60.60
37938;DHT22;23763;48.130;11.602;2023-06-04T11:44:18;25.00;60.90
37938;DHT22;23763;48.130;11.602;2023-06-04T11:46:45;25.00;60.20
37938;DHT22;23763;48.130;11.602;2023-06-04T11:49:18;25.20;60.30
37938;DHT22;23763;48.130;11.602;2023-06-04T11:51:51;25.20;60.40
37938;DHT22;23763;48.130;11.602;2023-06-04T11:54:18;25.30;60.50
37938;DHT22;23763;48.130;11.602;2023-06-04T11:56:44;24.90;59.40
37938;DHT22;23763;48.130;11.602;2023-06-04T11:59:14;24.70;60.40
37938;DHT22;23763;48.130;11.602;2023-06-04T12:01:45;24.80;61.00
37938;DHT22;23763;48.130;11.602;2023-06-04T12:04:18;24.80;60.40
37938;DHT22;23763;48.130;11.602;2023-06-04T12:06:54;24.70;60.90
37938;DHT22;23763;48.130;11.602;2023-06-04T12:09:23;25.10;61.50
37938;DHT22;23763;48.130;11.602;2023-06-04T12:11:49;25.10;59.60
37938;DHT22;23763;48.130;11.602;2023-06-04T12:14:18;25.30;59.30
37938;DHT22;23763;48.130;11.602;2023-06-04T12:16:57;25.20;59.60
37938;DHT22;23763;48.130;11.602;2023-06-04T12:19:23;25.00;58.70
37938;DHT22;23763;48.130;11.602;2023-06-04T12:22:07;25.20;59.60
37938;DHT22;23763;48.130;11.602;2023-06-04T12:24:34;25.10;59.90
37938;DHT22;23763;48.130;11.602;2023-06-04T12:27:11;25.20;60.20
37938;DHT22;23763;48.130;11.602;2023-06-04T12:29:37;25.00;60.70
37938;DHT22;23763;48.130;11.602;2023-06-04T12:32:09;24.90;60.30
37938;DHT22;23763;48.130;11.602;2023-06-04T12:34:37;25.00;60.30
37938;DHT22;23763;48.130;11.602;2023-06-04T12:37:03;25.00;60.00
37938;DHT22;23763;48.130;11.602;2023-06-04T12:39:34;25.10;60.00
37938;DHT22;23763;48.130;11.602;2023-06-04T12:42:02;25.00;59.10
37938;DHT22;23763;48.130;11.602;2023-06-04T12:44:28;24.60;59.90
37938;DHT22;23763;48.130;11.602;2023-06-04T12:46:54;24.60;60.10
37938;DHT22;23763;48.130;11.602;2023-06-04T12:49:19;24.70;59.90
37938;DHT22;23763;48.130;11.602;2023-06-04T12:51:46;24.70;59.60
37938;DHT22;23763;48.130;11.602;2023-06-04T12:54:11;24.90;60.10
37938;DHT22;23763;48.130;11.602;2023-06-04T12:56:40;24.80;59.50
37938;DHT22;23763;48.130;11.602;2023-06-04T12:59:06;24.70;59.30
37938;DHT22;23763;48.130;11.602;2023-06-04T13:01:32;24.70;59.60
37938;DHT22;23763;48.130;11.602;2023-06-04T13:03:58;24.70;59.30
37938;DHT22;23763;48.130;11.602;2023-06-04T13:06:23;24.60;59.10
37938;DHT22;23763;48.130;11.602;2023-06-04T13:08:49;24.70;59.70
37938;DHT22;23763;48.130;11.602;2023-06-04T13:11:15;24.70;59.20
37938;DHT22;23763;48.130;11.602;2023-06-04T13:13:41;24.80;58.80
37938;DHT22;23763;48.130;11.602;2023-06-04T13:16:07;25.10;58.40
37938;DHT22;23763;48.130;11.602;2023-06-04T13:18:33;25.00;58.10
37938;DHT22;23763;48.130;11.602;2023-06-04T13:20:58;25.30;57.50
37938;DHT22;23763;48.130;11.602;2023-06-04T13:23:24;25.30;57.50
37938;DHT22;23763;48.130;11.602;2023-06-04T13:25:50;25.50;57.60
37938;DHT22;23763;48.130;11.602;2023-06-04T13:28:16;25.60;57.20
37938;DHT22;23763;48.130;11.602;2023-06-04T13:30:43;25.60;57.10
37938;DHT22;23763;48.130;11.602;2023-06-04T13:34:06;25.60;57.20
37938;DHT22;23763;48.130;11.602;2023-06-04T13:36:34;25.20;58.00
37938;DHT22;23763;48.130;11.602;2023-06-04T13:39:04;25.20;58.20
37938;DHT22;23763;48.130;11.602;2023-06-04T13:41:35;25.40;57.80
37938;DHT22;23763;48.130;11.602;2023-06-04T13:44:00;25.40;57.40
37938;DHT22;23763;48.130;11.602;2023-06-04T13:46:26;25.30;57.60
37938;DHT22;23763;48.130;11.602;2023-06-04T13:48:52;25.20;57.40
37938;DHT22;23763;48.130;11.602;2023-06-04T13:51:17;25.00;57.50
37938;DHT22;23763;48.130;11.602;2023-06-04T13:53:43;25.00;58.00
37938;DHT22;23763;48.130;11.602;2023-06-04T13:56:08;24.70;58.20
37938;DHT22;23763;48.130;11.602;2023-06-04T13:58:34;24.80;58.10
37938;DHT22;23763;48.130;11.602;2023-06-04T14:00:59;24.80;57.90
37938;DHT22;23763;48.130;11.602;2023-06-04T14:03:25;25.10;58.30
37938;DHT22;23763;48.130;11.602;2023-06-04T14:05:51;24.70;57.30
37938;DHT22;23763;48.130;11.602;2023-06-04T14:08:16;24.90;57.50
37938;DHT22;23763;48.130;11.602;2023-06-04T14:10:42;25.20;57.40
37938;DHT22;23763;48.130;11.602;2023-06-04T14:13:08;25.60;56.90
37938;DHT22;23763;48.130;11.602;2023-06-04T14:15:34;25.90;56.40
37938;DHT22;23763;48.130;11.602;2023-06-04T14:18:00;25.90;56.40
37938;DHT22;23763;48.130;11.602;2023-06-04T14:20:26;26.20;55.90
37938;DHT22;23763;48.130;11.602;2023-06-04T14:22:52;26.10;55.90
37938;DHT22;23763;48.130;11.602;2023-06-04T14:25:17;25.80;56.50
37938;DHT22;23763;48.130;11.602;2023-06-04T14:27:43;25.50;57.20
37938;DHT22;23763;48.130;11.602;2023-06-04T14:30:09;25.30;57.70
37938;DHT22;23763;48.130;11.602;2023-06-04T14:32:35;25.10;58.50
37938;DHT22;23763;48.130;11.602;2023-06-04T14:35:01;25.00;59.10
37938;DHT22;23763;48.130;11.602;2023-06-04T14:37:27;24.60;59.30
37938;DHT22;23763;48.130;11.602;2023-06-04T14:39:53;24.80;59.70
37938;DHT22;23763;48.130;11.602;2023-06-04T14:42:18;24.70;60.40
37938;DHT22;23763;48.130;11.602;2023-06-04T14:44:45;24.80;58.90
37938;DHT22;23763;48.130;11.602;2023-06-04T14:47:11;24.70;58.10
37938;DHT22;23763;48.130;11.602;2023-06-04T14:49:36;24.70;57.50
37938;DHT22;23763;48.130;11.602;2023-06-04T14:52:03;24.50;59.60
37938;DHT22;23763;48.130;11.602;2023-06-04T14:54:28;24.60;60.00
37938;DHT22;23763;48.130;11.602;2023-06-04T14:56:55;24.70;60.30
37938;DHT22;23763;48.130;11.602;2023-06-04T14:59:20;24.70;59.70
37938;DHT22;23763;48.130;11.602;2023-06-04T15:01:46;24.80;60.20
37938;DHT22;23763;48.130;11.602;2023-06-04T15:04:12;24.90;60.60
37938;DHT22;23763;48.130;11.602;2023-06-04T15:06:38;25.30;60.00
37938;DHT22;23763;48.130;11.602;2023-06-04T15:09:03;25.50;59.10
37938;DHT22;23763;48.130;11.602;2023-06-04T15:11:29;25.40;59.20
37938;DHT22;23763;48.130;11.602;2023-06-04T15:13:55;25.40;59.30
37938;DHT22;23763;48.130;11.602;2023-06-04T15:16:21;25.20;58.90
37938;DHT22;23763;48.130;11.602;2023-06-04T15:18:47;25.20;59.70
37938;DHT22;23763;48.130;11.602;2023-06-04T15:21:12;25.20;59.00